sensor_id;sensor_type;location;lat;lon;timestamp;pressure;altitude;pressure_sealevel;temperature
62930;BMP280;49036;42.782;23.108;2023-05-14T00:01:36;94400.03;;;10.36
62930;BMP280;49036;42.782;23.108;2023-05-14T00:04:01;94401.94;;;10.33
62930;BMP280;49036;42.782;23.108;2023-05-14T00:06:27;94401.44;;;10.27
62930;BMP280;49036;42.782;23.108;2023-05-14T00:08:52;94400.56;;;10.25
62930;BMP280;49036;42.782;23.108;2023-05-14T00:11:18;94397.69;;;10.32
62930;BMP280;49036;42.782;23.108;2023-05-14T00:13:44;94398.06;;;10.46
62930;BMP280;49036;42.782;23.108;2023-05-14T00:16:10;94389.53;;;10.44
62930;BMP280;49036;42.782;23.108;2023-05-14T00:18:35;94381.69;;;10.50
62930;BMP280;49036;42.782;23.108;2023-05-14T00:21:01;94386.03;;;10.44
62930;BMP280;49036;42.782;23.108;2023-05-14T00:23:27;94385.88;;;10.42
62930;BMP280;49036;42.782;23.108;2023-05-14T00:25:52;94377.44;;;10.39
62930;BMP280;49036;42.782;23.108;2023-05-14T00:28:19;94370.97;;;10.37
62930;BMP280;49036;42.782;23.108;2023-05-14T00:30:44;94370.13;;;10.44
62930;BMP280;49036;42.782;23.108;2023-05-14T00:33:10;94373.47;;;10.43
62930;BMP280;49036;42.782;23.108;2023-05-14T00:35:35;94379.03;;;10.33
62930;BMP280;49036;42.782;23.108;2023-05-14T00:38:02;94378.94;;;10.23
62930;BMP280;49036;42.782;23.108;2023-05-14T00:40:27;94370.16;;;10.17
62930;BMP280;49036;42.782;23.108;2023-05-14T00:42:54;94379.44;;;10.12
62930;BMP280;49036;42.782;23.108;2023-05-14T00:45:20;94376.41;;;10.08
62930;BMP280;49036;42.782;23.108;2023-05-14T00:47:46;94364.38;;;10.05
62930;BMP280;49036;42.782;23.108;2023-05-14T00:50:12;94363.50;;;10.03
62930;BMP280;49036;42.782;23.108;2023-05-14T00:52:39;94356.66;;;10.04
62930;BMP280;49036;42.782;23.108;2023-05-14T00:55:05;94350.97;;;10.02
62930;BMP280;49036;42.782;23.108;2023-05-14T00:57:32;94351.81;;;9.95
62930;BMP280;49036;42.782;23.108;2023-05-14T00:59:58;94349.28;;;9.89
62930;BMP280;49036;42.782;23.108;2023-05-14T01:02:24;94341.97;;;9.84
62930;BMP280;49036;42.782;23.108;2023-05-14T01:04:50;94352.56;;;9.78
62930;BMP280;49036;42.782;23.108;2023-05-14T01:15:11;94372.41;;;9.74
62930;BMP280;49036;42.782;23.108;2023-05-14T01:17:45;94371.38;;;9.80
62930;BMP280;49036;42.782;23.108;2023-05-14T01:20:11;94370.09;;;9.81
62930;BMP280;49036;42.782;23.108;2023-05-14T01:22:37;94379.47;;;9.85
62930;BMP280;49036;42.782;23.108;2023-05-14T01:25:04;94375.13;;;9.92
62930;BMP280;49036;42.782;23.108;2023-05-14T01:27:50;94374.69;;;9.95
62930;BMP280;49036;42.782;23.108;2023-05-14T01:30:26;94370.66;;;10.06
62930;BMP280;49036;42.782;23.108;2023-05-14T01:32:56;94373.63;;;10.08
62930;BMP280;49036;42.782;23.108;2023-05-14T01:35:28;94372.16;;;10.07
62930;BMP280;49036;42.782;23.108;2023-05-14T01:37:55;94374.19;;;10.06
62930;BMP280;49036;42.782;23.108;2023-05-14T01:40:22;94369.53;;;10.09
62930;BMP280;49036;42.782;23.108;2023-05-14T01:42:49;94381.94;;;10.08
62930;BMP280;49036;42.782;23.108;2023-05-14T01:45:16;94375.81;;;10.10
62930;BMP280;49036;42.782;23.108;2023-05-14T01:47:42;94366.03;;;10.08
62930;BMP280;49036;42.782;23.108;2023-05-14T01:50:08;94373.63;;;10.08
62930;BMP280;49036;42.782;23.108;2023-05-14T01:52:34;94374.50;;;10.11
62930;BMP280;49036;42.782;23.108;2023-05-14T01:54:59;94376.78;;;10.04
62930;BMP280;49036;42.782;23.108;2023-05-14T01:57:25;94381.50;;;10.12
62930;BMP280;49036;42.782;23.108;2023-05-14T01:59:50;94381.50;;;10.12
62930;BMP280;49036;42.782;23.108;2023-05-14T02:02:16;94383.72;;;10.13
62930;BMP280;49036;42.782;23.108;2023-05-14T02:04:41;94375.41;;;10.13
62930;BMP280;49036;42.782;23.108;2023-05-14T02:07:07;94377.13;;;10.08
62930;BMP280;49036;42.782;23.108;2023-05-14T02:09:32;94373.88;;;10.02
62930;BMP280;49036;42.782;23.108;2023-05-14T02:11:58;94374.28;;;9.99
62930;BMP280;49036;42.782;23.108;2023-05-14T02:14:23;94377.56;;;9.88
62930;BMP280;49036;42.782;23.108;2023-05-14T02:16:49;94384.84;;;9.83
62930;BMP280;49036;42.782;23.108;2023-05-14T02:19:15;94376.78;;;9.77
62930;BMP280;49036;42.782;23.108;2023-05-14T02:21:41;94376.28;;;9.71
62930;BMP280;49036;42.782;23.108;2023-05-14T02:24:06;94377.28;;;9.66
62930;BMP280;49036;42.782;23.108;2023-05-14T02:26:32;94383.56;;;9.67
62930;BMP280;49036;42.782;23.108;2023-05-14T02:28:57;94385.44;;;9.64
62930;BMP280;49036;42.782;23.108;2023-05-14T02:31:22;94392.44;;;9.65
62930;BMP280;49036;42.782;23.108;2023-05-14T02:33:48;94395.66;;;9.62
62930;BMP280;49036;42.782;23.108;2023-05-14T02:36:13;94400.19;;;9.67
62930;BMP280;49036;42.782;23.108;2023-05-14T02:38:39;94394.28;;;9.80
62930;BMP280;49036;42.782;23.108;2023-05-14T02:41:05;94392.16;;;9.88
62930;BMP280;49036;42.782;23.108;2023-05-14T02:43:30;94396.19;;;9.95
62930;BMP280;49036;42.782;23.108;2023-05-14T02:45:56;94391.09;;;10.01
62930;BMP280;49036;42.782;23.108;2023-05-14T02:48:21;94402.09;;;10.08
62930;BMP280;49036;42.782;23.108;2023-05-14T02:50:48;94404.41;;;10.12
62930;BMP280;49036;42.782;23.108;2023-05-14T02:53:14;94398.06;;;10.19
62930;BMP280;49036;42.782;23.108;2023-05-14T02:55:39;94389.47;;;10.25
62930;BMP280;49036;42.782;23.108;2023-05-14T02:58:05;94398.56;;;10.35
62930;BMP280;49036;42.782;23.108;2023-05-14T03:00:31;94395.94;;;10.37
62930;BMP280;49036;42.782;23.108;2023-05-14T03:02:56;94394.81;;;10.40
62930;BMP280;49036;42.782;23.108;2023-05-14T03:05:22;94393.22;;;10.47
62930;BMP280;49036;42.782;23.108;2023-05-14T03:07:52;94384.19;;;10.46
62930;BMP280;49036;42.782;23.108;2023-05-14T03:10:18;94381.56;;;10.48
62930;BMP280;49036;42.782;23.108;2023-05-14T03:12:44;94380.94;;;10.50
62930;BMP280;49036;42.782;23.108;2023-05-14T03:15:09;94377.63;;;10.51
62930;BMP280;49036;42.782;23.108;2023-05-14T03:17:35;94385.38;;;10.53
62930;BMP280;49036;42.782;23.108;2023-05-14T03:20:01;94376.78;;;10.58
62930;BMP280;49036;42.782;23.108;2023-05-14T03:22:26;94384.78;;;10.54
62930;BMP280;49036;42.782;23.108;2023-05-14T03:24:52;94378.38;;;10.61
62930;BMP280;49036;42.782;23.108;2023-05-14T03:27:17;94385.56;;;10.64
62930;BMP280;49036;42.782;23.108;2023-05-14T03:29:43;94380.56;;;10.63
62930;BMP280;49036;42.782;23.108;2023-05-14T03:32:08;94395.19;;;10.63
62930;BMP280;49036;42.782;23.108;2023-05-14T03:34:34;94401.75;;;10.58
62930;BMP280;49036;42.782;23.108;2023-05-14T03:37:00;94398.50;;;10.52
62930;BMP280;49036;42.782;23.108;2023-05-14T03:39:25;94402.44;;;10.49
62930;BMP280;49036;42.782;23.108;2023-05-14T03:41:51;94401.84;;;10.51
62930;BMP280;49036;42.782;23.108;2023-05-14T03:44:16;94394.13;;;10.49
62930;BMP280;49036;42.782;23.108;2023-05-14T03:46:41;94401.84;;;10.51
62930;BMP280;49036;42.782;23.108;2023-05-14T03:49:07;94400.56;;;10.52
62930;BMP280;49036;42.782;23.108;2023-05-14T03:51:32;94410.81;;;10.59
62930;BMP280;49036;42.782;23.108;2023-05-14T03:53:58;94413.72;;;10.61
62930;BMP280;49036;42.782;23.108;2023-05-14T03:56:24;94404.69;;;10.60
62930;BMP280;49036;42.782;23.108;2023-05-14T03:58:50;94403.50;;;10.63
62930;BMP280;49036;42.782;23.108;2023-05-14T04:01:16;94403.50;;;10.63
62930;BMP280;49036;42.782;23.108;2023-05-14T04:03:41;94401.91;;;10.60
62930;BMP280;49036;42.782;23.108;2023-05-14T04:06:06;94391.84;;;10.65
62930;BMP280;49036;42.782;23.108;2023-05-14T04:08:32;94403.81;;;10.67
62930;BMP280;49036;42.782;23.108;2023-05-14T04:10:58;94406.94;;;10.72
62930;BMP280;49036;42.782;23.108;2023-05-14T04:13:23;94409.25;;;10.75
62930;BMP280;49036;42.782;23.108;2023-05-14T04:15:49;94413.19;;;10.72
62930;BMP280;49036;42.782;23.108;2023-05-14T04:18:14;94420.53;;;10.77
62930;BMP280;49036;42.782;23.108;2023-05-14T04:20:40;94415.09;;;10.79
62930;BMP280;49036;42.782;23.108;2023-05-14T04:23:05;94418.63;;;10.80
62930;BMP280;49036;42.782;23.108;2023-05-14T04:25:31;94422.28;;;10.82
62930;BMP280;49036;42.782;23.108;2023-05-14T04:27:56;94419.94;;;10.79
62930;BMP280;49036;42.782;23.108;2023-05-14T04:30:22;94427.03;;;10.62
62930;BMP280;49036;42.782;23.108;2023-05-14T04:32:48;94441.28;;;10.49
62930;BMP280;49036;42.782;23.108;2023-05-14T04:35:13;94447.88;;;10.27
62930;BMP280;49036;42.782;23.108;2023-05-14T04:37:39;94454.31;;;10.02
62930;BMP280;49036;42.782;23.108;2023-05-14T04:40:08;94458.03;;;9.97
62930;BMP280;49036;42.782;23.108;2023-05-14T04:42:36;94461.16;;;10.01
62930;BMP280;49036;42.782;23.108;2023-05-14T04:45:01;94457.88;;;9.95
62930;BMP280;49036;42.782;23.108;2023-05-14T04:47:29;94468.50;;;9.89
62930;BMP280;49036;42.782;23.108;2023-05-14T04:49:55;94472.81;;;9.83
62930;BMP280;49036;42.782;23.108;2023-05-14T04:52:22;94479.56;;;9.72
62930;BMP280;49036;42.782;23.108;2023-05-14T04:54:48;94478.91;;;9.64
62930;BMP280;49036;42.782;23.108;2023-05-14T04:57:13;94486.50;;;9.63
62930;BMP280;49036;42.782;23.108;2023-05-14T04:59:39;94488.53;;;9.63
62930;BMP280;49036;42.782;23.108;2023-05-14T05:02:04;94499.78;;;9.65
62930;BMP280;49036;42.782;23.108;2023-05-14T05:04:30;94504.22;;;9.68
62930;BMP280;49036;42.782;23.108;2023-05-14T05:06:58;94492.78;;;9.81
62930;BMP280;49036;42.782;23.108;2023-05-14T05:09:24;94498.00;;;9.77
62930;BMP280;49036;42.782;23.108;2023-05-14T05:11:49;94489.78;;;9.69
62930;BMP280;49036;42.782;23.108;2023-05-14T05:14:15;94502.22;;;9.61
62930;BMP280;49036;42.782;23.108;2023-05-14T05:16:40;94508.59;;;9.54
62930;BMP280;49036;42.782;23.108;2023-05-14T05:19:06;94502.78;;;9.42
62930;BMP280;49036;42.782;23.108;2023-05-14T05:21:31;94499.31;;;9.34
62930;BMP280;49036;42.782;23.108;2023-05-14T05:23:57;94500.31;;;9.29
62930;BMP280;49036;42.782;23.108;2023-05-14T05:26:23;94509.91;;;9.28
62930;BMP280;49036;42.782;23.108;2023-05-14T05:28:51;94497.53;;;9.29
62930;BMP280;49036;42.782;23.108;2023-05-14T05:31:16;94512.88;;;9.22
62930;BMP280;49036;42.782;23.108;2023-05-14T05:33:42;94515.66;;;9.22
62930;BMP280;49036;42.782;23.108;2023-05-14T05:36:08;94509.59;;;9.24
62930;BMP280;49036;42.782;23.108;2023-05-14T05:38:33;94518.63;;;9.24
62930;BMP280;49036;42.782;23.108;2023-05-14T05:40:59;94518.13;;;9.18
62930;BMP280;49036;42.782;23.108;2023-05-14T05:43:24;94525.94;;;9.12
62930;BMP280;49036;42.782;23.108;2023-05-14T05:45:50;94522.22;;;9.09
62930;BMP280;49036;42.782;23.108;2023-05-14T05:48:15;94532.41;;;9.07
62930;BMP280;49036;42.782;23.108;2023-05-14T05:50:41;94526.69;;;9.05
62930;BMP280;49036;42.782;23.108;2023-05-14T05:53:08;94513.59;;;9.05
62930;BMP280;49036;42.782;23.108;2023-05-14T05:55:34;94519.53;;;9.02
62930;BMP280;49036;42.782;23.108;2023-05-14T05:58:00;94520.31;;;8.95
62930;BMP280;49036;42.782;23.108;2023-05-14T06:00:25;94512.94;;;8.90
62930;BMP280;49036;42.782;23.108;2023-05-14T06:02:51;94514.44;;;8.91
62930;BMP280;49036;42.782;23.108;2023-05-14T06:05:16;94501.88;;;8.90
62930;BMP280;49036;42.782;23.108;2023-05-14T06:07:43;94499.72;;;8.80
62930;BMP280;49036;42.782;23.108;2023-05-14T06:10:09;94499.34;;;8.84
62930;BMP280;49036;42.782;23.108;2023-05-14T06:12:34;94502.28;;;8.86
62930;BMP280;49036;42.782;23.108;2023-05-14T06:15:00;94504.19;;;8.76
62930;BMP280;49036;42.782;23.108;2023-05-14T06:17:26;94510.66;;;8.71
62930;BMP280;49036;42.782;23.108;2023-05-14T06:19:51;94506.78;;;8.74
62930;BMP280;49036;42.782;23.108;2023-05-14T06:22:17;94523.25;;;8.64
62930;BMP280;49036;42.782;23.108;2023-05-14T06:24:43;94532.09;;;8.63
62930;BMP280;49036;42.782;23.108;2023-05-14T06:27:09;94531.00;;;8.66
62930;BMP280;49036;42.782;23.108;2023-05-14T06:29:36;94532.84;;;8.63
62930;BMP280;49036;42.782;23.108;2023-05-14T06:32:02;94527.50;;;8.65
62930;BMP280;49036;42.782;23.108;2023-05-14T06:34:28;94530.56;;;8.77
62930;BMP280;49036;42.782;23.108;2023-05-14T06:36:53;94518.38;;;8.80
62930;BMP280;49036;42.782;23.108;2023-05-14T06:39:19;94519.47;;;8.85
62930;BMP280;49036;42.782;23.108;2023-05-14T06:41:44;94516.69;;;8.85
62930;BMP280;49036;42.782;23.108;2023-05-14T06:44:10;94520.19;;;8.85
62930;BMP280;49036;42.782;23.108;2023-05-14T06:46:36;94511.66;;;8.91
62930;BMP280;49036;42.782;23.108;2023-05-14T06:49:02;94512.34;;;8.99
62930;BMP280;49036;42.782;23.108;2023-05-14T06:51:27;94516.94;;;9.04
62930;BMP280;49036;42.782;23.108;2023-05-14T06:53:54;94522.34;;;8.94
62930;BMP280;49036;42.782;23.108;2023-05-14T06:56:21;94526.56;;;8.95
62930;BMP280;49036;42.782;23.108;2023-05-14T06:58:47;94523.09;;;8.95
62930;BMP280;49036;42.782;23.108;2023-05-14T07:01:12;94526.00;;;8.97
62930;BMP280;49036;42.782;23.108;2023-05-14T07:03:38;94522.91;;;8.93
62930;BMP280;49036;42.782;23.108;2023-05-14T07:06:04;94530.78;;;9.04
62930;BMP280;49036;42.782;23.108;2023-05-14T07:08:31;94535.16;;;9.07
62930;BMP280;49036;42.782;23.108;2023-05-14T07:10:56;94528.16;;;9.06
62930;BMP280;49036;42.782;23.108;2023-05-14T07:13:22;94538.00;;;8.99
62930;BMP280;49036;42.782;23.108;2023-05-14T07:15:48;94540.03;;;8.99
62930;BMP280;49036;42.782;23.108;2023-05-14T07:18:14;94536.34;;;9.04
62930;BMP280;49036;42.782;23.108;2023-05-14T07:20:39;94528.03;;;9.04
62930;BMP280;49036;42.782;23.108;2023-05-14T07:23:05;94534.88;;;8.95
62930;BMP280;49036;42.782;23.108;2023-05-14T07:25:30;94531.38;;;8.95
62930;BMP280;49036;42.782;23.108;2023-05-14T07:27:56;94533.94;;;9.00
62930;BMP280;49036;42.782;23.108;2023-05-14T07:30:22;94533.38;;;9.02
62930;BMP280;49036;42.782;23.108;2023-05-14T07:32:48;94538.16;;;9.01
62930;BMP280;49036;42.782;23.108;2023-05-14T07:35:13;94541.13;;;8.96
62930;BMP280;49036;42.782;23.108;2023-05-14T07:37:39;94550.03;;;8.94
62930;BMP280;49036;42.782;23.108;2023-05-14T07:40:05;94546.88;;;8.98
62930;BMP280;49036;42.782;23.108;2023-05-14T07:42:31;94538.91;;;9.02
62930;BMP280;49036;42.782;23.108;2023-05-14T07:44:56;94533.63;;;9.13
62930;BMP280;49036;42.782;23.108;2023-05-14T07:47:22;94540.38;;;9.28
62930;BMP280;49036;42.782;23.108;2023-05-14T07:49:47;94541.81;;;9.36
62930;BMP280;49036;42.782;23.108;2023-05-14T07:52:13;94541.63;;;9.34
62930;BMP280;49036;42.782;23.108;2023-05-14T07:54:38;94545.13;;;9.35
62930;BMP280;49036;42.782;23.108;2023-05-14T07:57:04;94551.22;;;9.33
62930;BMP280;49036;42.782;23.108;2023-05-14T07:59:30;94550.91;;;9.29
62930;BMP280;49036;42.782;23.108;2023-05-14T08:01:56;94545.75;;;9.26
62930;BMP280;49036;42.782;23.108;2023-05-14T08:04:21;94544.69;;;9.21
62930;BMP280;49036;42.782;23.108;2023-05-14T08:06:48;94546.53;;;9.19
62930;BMP280;49036;42.782;23.108;2023-05-14T08:09:13;94534.38;;;9.14
62930;BMP280;49036;42.782;23.108;2023-05-14T08:11:39;94522.34;;;9.19
62930;BMP280;49036;42.782;23.108;2023-05-14T08:14:05;94517.88;;;9.24
62930;BMP280;49036;42.782;23.108;2023-05-14T08:16:30;94513.19;;;9.34
62930;BMP280;49036;42.782;23.108;2023-05-14T08:18:56;94505.44;;;9.32
62930;BMP280;49036;42.782;23.108;2023-05-14T08:21:21;94514.72;;;9.27
62930;BMP280;49036;42.782;23.108;2023-05-14T08:23:47;94515.06;;;9.31
62930;BMP280;49036;42.782;23.108;2023-05-14T08:26:12;94505.00;;;9.19
62930;BMP280;49036;42.782;23.108;2023-05-14T08:28:38;94507.13;;;9.28
62930;BMP280;49036;42.782;23.108;2023-05-14T08:31:03;94508.03;;;9.30
62930;BMP280;49036;42.782;23.108;2023-05-14T08:33:29;94496.78;;;9.28
62930;BMP280;49036;42.782;23.108;2023-05-14T08:35:55;94503.47;;;9.25
62930;BMP280;49036;42.782;23.108;2023-05-14T08:38:22;94501.75;;;9.12
62930;BMP280;49036;42.782;23.108;2023-05-14T08:40:55;94501.00;;;9.12
62930;BMP280;49036;42.782;23.108;2023-05-14T08:43:25;94507.94;;;9.21
62930;BMP280;49036;42.782;23.108;2023-05-14T08:45:53;94499.41;;;9.26
62930;BMP280;49036;42.782;23.108;2023-05-14T08:48:21;94495.31;;;9.27
62930;BMP280;49036;42.782;23.108;2023-05-14T08:50:47;94500.31;;;9.29
62930;BMP280;49036;42.782;23.108;2023-05-14T08:53:13;94502.00;;;9.24
62930;BMP280;49036;42.782;23.108;2023-05-14T08:55:39;94512.00;;;9.20
62930;BMP280;49036;42.782;23.108;2023-05-14T08:58:05;94519.22;;;9.15
62930;BMP280;49036;42.782;23.108;2023-05-14T09:00:30;94502.25;;;9.19
62930;BMP280;49036;42.782;23.108;2023-05-14T09:02:56;94509.38;;;9.22
62930;BMP280;49036;42.782;23.108;2023-05-14T09:05:23;94492.81;;;9.39
62930;BMP280;49036;42.782;23.108;2023-05-14T09:07:48;94494.16;;;9.55
62930;BMP280;49036;42.782;23.108;2023-05-14T09:10:14;94485.84;;;9.72
62930;BMP280;49036;42.782;23.108;2023-05-14T09:12:40;94481.94;;;9.93
62930;BMP280;49036;42.782;23.108;2023-05-14T09:15:06;94480.47;;;9.92
62930;BMP280;49036;42.782;23.108;2023-05-14T09:17:32;94482.34;;;9.89
62930;BMP280;49036;42.782;23.108;2023-05-14T09:19:58;94485.28;;;9.91
62930;BMP280;49036;42.782;23.108;2023-05-14T09:22:23;94484.16;;;9.77
62930;BMP280;49036;42.782;23.108;2023-05-14T09:27:29;94475.50;;;9.56
62930;BMP280;49036;42.782;23.108;2023-05-14T09:30:03;94472.06;;;9.65
62930;BMP280;49036;42.782;23.108;2023-05-14T09:32:34;94473.16;;;9.69
62930;BMP280;49036;42.782;23.108;2023-05-14T09:35:08;94480.53;;;9.67
62930;BMP280;49036;42.782;23.108;2023-05-14T09:37:35;94478.13;;;9.71
62930;BMP280;49036;42.782;23.108;2023-05-14T09:40:08;94477.22;;;9.68
62930;BMP280;49036;42.782;23.108;2023-05-14T09:42:33;94474.47;;;9.68
62930;BMP280;49036;42.782;23.108;2023-05-14T09:44:59;94477.44;;;9.63
62930;BMP280;49036;42.782;23.108;2023-05-14T09:47:24;94469.78;;;9.54
62930;BMP280;49036;42.782;23.108;2023-05-14T09:49:51;94470.00;;;9.48
62930;BMP280;49036;42.782;23.108;2023-05-14T09:52:19;94464.66;;;9.50
62930;BMP280;49036;42.782;23.108;2023-05-14T09:54:45;94452.19;;;9.59
62930;BMP280;49036;42.782;23.108;2023-05-14T09:57:11;94445.75;;;9.56
62930;BMP280;49036;42.782;23.108;2023-05-14T09:59:37;94451.22;;;9.64
62930;BMP280;49036;42.782;23.108;2023-05-14T10:02:04;94451.38;;;9.66
62930;BMP280;49036;42.782;23.108;2023-05-14T10:04:32;94463.78;;;9.82
62930;BMP280;49036;42.782;23.108;2023-05-14T10:06:58;94438.09;;;9.82
62930;BMP280;49036;42.782;23.108;2023-05-14T10:09:26;94426.78;;;9.87
62930;BMP280;49036;42.782;23.108;2023-05-14T10:11:58;94419.56;;;9.84
62930;BMP280;49036;42.782;23.108;2023-05-14T10:14:33;94413.19;;;9.91
62930;BMP280;49036;42.782;23.108;2023-05-14T10:17:00;94421.22;;;9.87
62930;BMP280;49036;42.782;23.108;2023-05-14T10:19:31;94432.44;;;9.72
62930;BMP280;49036;42.782;23.108;2023-05-14T10:22:03;94436.28;;;9.59
62930;BMP280;49036;42.782;23.108;2023-05-14T10:24:29;94442.16;;;9.46
62930;BMP280;49036;42.782;23.108;2023-05-14T10:26:55;94441.91;;;9.34
62930;BMP280;49036;42.782;23.108;2023-05-14T10:29:34;94452.25;;;9.34
62930;BMP280;49036;42.782;23.108;2023-05-14T10:32:03;94439.69;;;9.33
62930;BMP280;49036;42.782;23.108;2023-05-14T10:34:36;94439.03;;;9.25
62930;BMP280;49036;42.782;23.108;2023-05-14T10:37:04;94429.16;;;9.14
62930;BMP280;49036;42.782;23.108;2023-05-14T10:42:19;94408.50;;;9.32
62930;BMP280;49036;42.782;23.108;2023-05-14T10:45:00;94417.56;;;9.50
62930;BMP280;49036;42.782;23.108;2023-05-14T10:47:27;94425.53;;;9.63
62930;BMP280;49036;42.782;23.108;2023-05-14T10:49:55;94440.63;;;9.70
62930;BMP280;49036;42.782;23.108;2023-05-14T10:52:22;94451.38;;;9.66
62930;BMP280;49036;42.782;23.108;2023-05-14T10:54:49;94448.59;;;9.66
62930;BMP280;49036;42.782;23.108;2023-05-14T10:57:20;94446.81;;;9.61
62930;BMP280;49036;42.782;23.108;2023-05-14T10:59:50;94459.09;;;9.67
62930;BMP280;49036;42.782;23.108;2023-05-14T11:02:30;94449.81;;;9.72
62930;BMP280;49036;42.782;23.108;2023-05-14T11:07:32;94449.22;;;10.08
62930;BMP280;49036;42.782;23.108;2023-05-14T11:10:09;94440.44;;;10.29
62930;BMP280;49036;42.782;23.108;2023-05-14T11:12:37;94429.78;;;10.53
62930;BMP280;49036;42.782;23.108;2023-05-14T11:15:05;94423.59;;;10.81
62930;BMP280;49036;42.782;23.108;2023-05-14T11:17:32;94413.66;;;10.88
62930;BMP280;49036;42.782;23.108;2023-05-14T11:19:59;94407.44;;;11.07
62930;BMP280;49036;42.782;23.108;2023-05-14T11:22:24;94414.63;;;11.19
62930;BMP280;49036;42.782;23.108;2023-05-14T11:24:50;94409.66;;;11.18
62930;BMP280;49036;42.782;23.108;2023-05-14T11:27:17;94409.50;;;11.06
62930;BMP280;49036;42.782;23.108;2023-05-14T11:29:46;94408.31;;;11.09
62930;BMP280;49036;42.782;23.108;2023-05-14T11:32:13;94413.16;;;11.18
62930;BMP280;49036;42.782;23.108;2023-05-14T11:34:41;94408.19;;;11.07
62930;BMP280;49036;42.782;23.108;2023-05-14T11:37:07;94407.25;;;10.95
62930;BMP280;49036;42.782;23.108;2023-05-14T11:39:34;94413.63;;;10.68
62930;BMP280;49036;42.782;23.108;2023-05-14T11:42:06;94416.72;;;10.82
62930;BMP280;49036;42.782;23.108;2023-05-14T11:44:33;94402.44;;;10.86
62930;BMP280;49036;42.782;23.108;2023-05-14T11:46:59;94411.94;;;10.92
62930;BMP280;49036;42.782;23.108;2023-05-14T11:49:29;94404.19;;;10.91
62930;BMP280;49036;42.782;23.108;2023-05-14T11:52:00;94401.56;;;10.93
62930;BMP280;49036;42.782;23.108;2023-05-14T11:54:29;94394.69;;;10.94
62930;BMP280;49036;42.782;23.108;2023-05-14T11:56:55;94382.59;;;10.99
62930;BMP280;49036;42.782;23.108;2023-05-14T11:59:26;94373.53;;;10.98
62930;BMP280;49036;42.782;23.108;2023-05-14T12:01:53;94377.19;;;11.11
62930;BMP280;49036;42.782;23.108;2023-05-14T12:04:18;94378.97;;;11.35
62930;BMP280;49036;42.782;23.108;2023-05-14T12:06:47;94373.56;;;11.56
62930;BMP280;49036;42.782;23.108;2023-05-14T12:09:15;94369.16;;;11.63
62930;BMP280;49036;42.782;23.108;2023-05-14T12:11:42;94363.28;;;11.88
62930;BMP280;49036;42.782;23.108;2023-05-14T12:14:16;94352.75;;;12.27
62930;BMP280;49036;42.782;23.108;2023-05-14T12:16:43;94349.16;;;12.46
62930;BMP280;49036;42.782;23.108;2023-05-14T12:19:09;94345.28;;;12.60
62930;BMP280;49036;42.782;23.108;2023-05-14T12:21:38;94341.09;;;12.50
62930;BMP280;49036;42.782;23.108;2023-05-14T12:24:09;94347.50;;;12.52
62930;BMP280;49036;42.782;23.108;2023-05-14T12:26:35;94343.69;;;12.57
62930;BMP280;49036;42.782;23.108;2023-05-14T12:29:03;94343.75;;;12.69
62930;BMP280;49036;42.782;23.108;2023-05-14T12:31:35;94342.03;;;12.64
62930;BMP280;49036;42.782;23.108;2023-05-14T12:34:02;94344.28;;;12.56
62930;BMP280;49036;42.782;23.108;2023-05-14T12:36:28;94340.72;;;12.34
62930;BMP280;49036;42.782;23.108;2023-05-14T12:39:01;94336.22;;;12.19
62930;BMP280;49036;42.782;23.108;2023-05-14T12:41:29;94335.63;;;11.80
62930;BMP280;49036;42.782;23.108;2023-05-14T12:43:54;94338.44;;;11.61
62930;BMP280;49036;42.782;23.108;2023-05-14T12:46:20;94335.91;;;11.65
62930;BMP280;49036;42.782;23.108;2023-05-14T12:48:45;94342.25;;;11.56
62930;BMP280;49036;42.782;23.108;2023-05-14T12:51:11;94327.88;;;11.59
62930;BMP280;49036;42.782;23.108;2023-05-14T12:53:37;94329.22;;;11.68
62930;BMP280;49036;42.782;23.108;2023-05-14T12:56:02;94327.00;;;11.76
62930;BMP280;49036;42.782;23.108;2023-05-14T12:58:28;94327.22;;;11.99
62930;BMP280;49036;42.782;23.108;2023-05-14T13:00:53;94333.81;;;11.85
62930;BMP280;49036;42.782;23.108;2023-05-14T13:03:18;94333.13;;;11.65
62930;BMP280;49036;42.782;23.108;2023-05-14T13:05:45;94314.16;;;11.61
62930;BMP280;49036;42.782;23.108;2023-05-14T13:08:10;94323.47;;;11.66
62930;BMP280;49036;42.782;23.108;2023-05-14T13:10:39;94331.81;;;11.66
62930;BMP280;49036;42.782;23.108;2023-05-14T13:13:04;94323.38;;;11.64
62930;BMP280;49036;42.782;23.108;2023-05-14T13:15:30;94308.84;;;11.65
62930;BMP280;49036;42.782;23.108;2023-05-14T13:17:58;94310.47;;;11.69
62930;BMP280;49036;42.782;23.108;2023-05-14T13:20:23;94305.94;;;11.54
62930;BMP280;49036;42.782;23.108;2023-05-14T13:22:51;94291.75;;;11.59
62930;BMP280;49036;42.782;23.108;2023-05-14T13:25:17;94294.38;;;11.77
62930;BMP280;49036;42.782;23.108;2023-05-14T13:27:42;94287.28;;;11.85
62930;BMP280;49036;42.782;23.108;2023-05-14T13:30:08;94293.94;;;12.11
62930;BMP280;49036;42.782;23.108;2023-05-14T13:32:33;94293.66;;;12.38
62930;BMP280;49036;42.782;23.108;2023-05-14T13:34:59;94287.59;;;12.51
62930;BMP280;49036;42.782;23.108;2023-05-14T13:37:24;94285.94;;;12.58
62930;BMP280;49036;42.782;23.108;2023-05-14T13:39:50;94287.06;;;12.43
62930;BMP280;49036;42.782;23.108;2023-05-14T13:42:15;94278.56;;;12.41
62930;BMP280;49036;42.782;23.108;2023-05-14T13:44:41;94266.28;;;12.35
62930;BMP280;49036;42.782;23.108;2023-05-14T13:47:06;94284.03;;;12.29
62930;BMP280;49036;42.782;23.108;2023-05-14T13:49:31;94284.50;;;12.26
62930;BMP280;49036;42.782;23.108;2023-05-14T13:51:57;94286.91;;;12.10
62930;BMP280;49036;42.782;23.108;2023-05-14T13:54:22;94290.06;;;11.95
62930;BMP280;49036;42.782;23.108;2023-05-14T13:56:48;94278.09;;;11.83
62930;BMP280;49036;42.782;23.108;2023-05-14T13:59:13;94280.56;;;11.88
62930;BMP280;49036;42.782;23.108;2023-05-14T14:01:39;94289.88;;;12.03
62930;BMP280;49036;42.782;23.108;2023-05-14T14:04:08;94287.75;;;11.82
62930;BMP280;49036;42.782;23.108;2023-05-14T14:06:34;94289.50;;;11.87
62930;BMP280;49036;42.782;23.108;2023-05-14T14:08:59;94287.94;;;11.74
62930;BMP280;49036;42.782;23.108;2023-05-14T14:11:25;94279.72;;;11.76
62930;BMP280;49036;42.782;23.108;2023-05-14T14:13:51;94278.53;;;11.79
62930;BMP280;49036;42.782;23.108;2023-05-14T14:16:16;94263.47;;;11.73